Time;durP1;ratioP1;P1;durP2;ratioP2;P2;SDS_P1;SDS_P2;PMS_P1;PMS_P2;Temp;Humidity;BMP_temperature;BMP_pressure;BME280_temperature;BME280_humidity;BME280_pressure;Samples;Min_cycle;Max_cycle;Signal;HPM_P1;HPM_P2
2022/03/25 00:00:06;;;;;;;27.77;14.90;;;10.10;73.70;;;;;;5074677;28;20036;-66
2022/03/25 00:02:32;;;;;;;27.80;15.48;;;10.10;74.10;;;;;;5074787;28;20024;-66
2022/03/25 00:04:57;;;;;;;28.73;14.13;;;10.00;74.40;;;;;;5092685;28;20027;-67
2022/03/25 00:07:23;;;;;;;32.77;15.27;;;10.10;75.00;;;;;;5096551;28;20016;-67
2022/03/25 00:09:49;;;;;;;28.00;15.20;;;10.10;75.40;;;;;;5096290;28;20012;-67
2022/03/25 00:12:15;;;;;;;32.77;16.53;;;10.00;75.60;;;;;;5078172;28;20039;-67
2022/03/25 00:14:40;;;;;;;27.85;14.95;;;10.00;76.30;;;;;;5096325;28;20028;-67
2022/03/25 00:17:07;;;;;;;25.90;15.77;;;10.00;77.40;;;;;;5096191;28;20027;-66
2022/03/25 00:19:32;;;;;;;31.38;16.10;;;10.00;79.90;;;;;;5078188;28;20267;-65
2022/03/25 00:21:58;;;;;;;23.87;14.90;;;9.90;79.80;;;;;;5096107;28;20069;-65
2022/03/25 00:24:24;;;;;;;26.07;14.93;;;10.00;81.10;;;;;;5077692;28;20389;-66
2022/03/25 00:33:36;;;;;;;26.63;14.60;;;10.00;83.90;;;;;;5096019;28;20019;-65
2022/03/25 00:36:03;;;;;;;27.15;15.15;;;9.80;86.70;;;;;;5095861;28;20479;-65
2022/03/25 00:38:28;;;;;;;26.13;14.98;;;9.70;87.50;;;;;;5095765;28;20146;-65
2022/03/25 00:40:55;;;;;;;29.27;15.73;;;9.60;90.00;;;;;;5095632;28;20111;-65
2022/03/25 00:43:21;;;;;;;;;;;9.60;90.30;;;;;;5081304;28;20510;-65
2022/03/25 00:45:47;;;;;;;29.35;14.75;;;9.50;91.10;;;;;;5104860;28;19931;-65
2022/03/25 00:48:15;;;;;;;29.30;14.63;;;9.40;91.60;;;;;;5100607;28;20020;-65
2022/03/25 00:50:41;;;;;;;26.50;14.60;;;9.60;92.00;;;;;;5077254;28;20134;-65
2022/03/25 00:53:08;;;;;;;29.50;15.25;;;9.50;92.40;;;;;;5095398;28;20055;-65
2022/03/25 00:55:34;;;;;;;;;;;9.40;93.30;;;;;;5077623;28;20035;-65
2022/03/25 00:58:00;;;;;;;29.88;14.93;;;9.30;94.00;;;;;;5095208;28;19911;-65
2022/03/25 01:00:26;;;;;;;26.67;14.55;;;9.20;94.90;;;;;;5095072;28;20388;-65
2022/03/25 01:02:51;;;;;;;28.30;14.52;;;9.10;95.50;;;;;;5095768;28;20096;-65
2022/03/25 01:05:20;;;;;;;26.30;14.40;;;9.10;95.90;;;;;;5077333;28;20083;-65
2022/03/25 01:07:45;;;;;;;31.63;15.15;;;9.00;96.40;;;;;;5096529;28;20020;-64
2022/03/25 01:10:12;;;;;;;26.83;14.18;;;9.10;96.60;;;;;;5097819;28;20028;-65
2022/03/25 01:12:37;;;;;;;27.92;14.63;;;9.00;96.90;;;;;;5095944;28;20043;-65
2022/03/25 01:15:04;;;;;;;28.13;13.75;;;8.90;97.40;;;;;;5095273;28;20024;-65
2022/03/25 01:17:30;;;;;;;26.45;14.65;;;8.90;97.70;;;;;;5094903;28;20047;-65
2022/03/25 01:19:56;;;;;;;25.92;14.40;;;8.90;98.00;;;;;;5097702;28;20043;-65
2022/03/25 01:22:22;;;;;;;22.63;13.57;;;8.90;98.10;;;;;;5099233;28;20476;-65
2022/03/25 01:24:48;;;;;;;27.88;15.45;;;8.80;98.10;;;;;;5081321;28;20270;-65
2022/03/25 01:27:14;;;;;;;29.73;16.02;;;8.80;98.50;;;;;;5103191;28;20403;-66
2022/03/25 01:29:40;;;;;;;30.98;15.23;;;8.80;98.60;;;;;;5097076;28;20023;-65
2022/03/25 01:32:09;;;;;;;28.67;14.82;;;8.80;98.70;;;;;;5094816;28;20393;-65
2022/03/25 01:34:35;;;;;;;25.30;14.63;;;8.80;98.70;;;;;;5094638;28;20391;-65
2022/03/25 01:37:02;;;;;;;24.63;14.13;;;8.80;98.70;;;;;;5095003;28;20028;-66
2022/03/25 01:39:28;;;;;;;24.70;13.55;;;8.80;98.70;;;;;;5094652;28;20069;-66
2022/03/25 01:41:55;;;;;;;23.85;14.00;;;8.80;98.70;;;;;;5094760;28;20024;-65
2022/03/25 01:44:29;;;;;;;26.88;15.15;;;8.80;98.60;;;;;;5076393;28;20035;-66
2022/03/25 01:46:56;;;;;;;27.17;14.45;;;8.90;98.40;;;;;;5094348;28;20480;-65
2022/03/25 01:49:22;;;;;;;25.38;14.52;;;8.90;98.50;;;;;;5094304;28;20443;-65
2022/03/25 01:51:55;;;;;;;29.15;14.60;;;8.90;98.50;;;;;;5094960;28;20026;-65
2022/03/25 01:54:23;;;;;;;24.75;14.70;;;8.90;98.50;;;;;;5094601;28;20538;-65
2022/03/25 01:56:57;;;;;;;27.15;14.40;;;9.10;98.10;;;;;;5094224;28;20028;-65
2022/03/25 01:59:24;;;;;;;25.42;14.77;;;9.00;97.80;;;;;;5094240;28;20506;-65
2022/03/25 02:01:50;;;;;;;26.73;15.25;;;9.00;97.70;;;;;;5094287;28;20102;-64
2022/03/25 02:04:17;;;;;;;28.80;15.48;;;9.00;97.90;;;;;;5094679;28;20056;-64
2022/03/25 02:06:43;;;;;;;25.83;13.93;;;8.90;98.00;;;;;;5084966;28;20052;-65
2022/03/25 02:09:09;;;;;;;27.40;15.15;;;8.90;98.20;;;;;;5096754;28;20083;-65
2022/03/25 02:11:35;;;;;;;29.43;14.03;;;8.80;98.30;;;;;;5096723;28;20051;-65
2022/03/25 02:14:02;;;;;;;24.23;14.80;;;8.70;98.80;;;;;;5097859;28;20815;-65
2022/03/25 02:16:35;;;;;;;24.52;13.77;;;8.70;99.00;;;;;;5097062;28;20035;-65
2022/03/25 02:19:01;;;;;;;26.52;14.20;;;8.60;99.30;;;;;;5094110;28;20048;-65
2022/03/25 02:21:33;;;;;;;21.47;13.40;;;8.50;99.50;;;;;;5093908;28;20092;-65
2022/03/25 02:24:02;;;;;;;24.38;13.82;;;8.50;99.70;;;;;;5075567;28;20020;-65
2022/03/25 02:26:28;;;;;;;27.05;15.55;;;8.40;99.90;;;;;;5075373;28;20111;-65
2022/03/25 02:28:55;;;;;;;28.38;15.35;;;8.40;99.90;;;;;;5092907;28;20031;-65
2022/03/25 02:31:20;;;;;;;23.50;14.15;;;8.30;99.90;;;;;;5094124;28;20109;-66
2022/03/25 02:33:46;;;;;;;23.08;13.73;;;8.30;99.90;;;;;;5075511;28;20481;-65
2022/03/25 02:36:12;;;;;;;26.17;14.27;;;8.30;99.80;;;;;;5093571;28;20063;-66
2022/03/25 02:38:37;;;;;;;28.20;14.23;;;8.30;99.80;;;;;;5093385;28;20413;-66
2022/03/25 02:41:04;;;;;;;26.60;13.93;;;8.20;99.60;;;;;;5075451;28;20062;-66
2022/03/25 02:43:30;;;;;;;;;;;8.20;99.80;;;;;;5094993;28;20061;-65
2022/03/25 02:45:55;;;;;;;25.42;14.50;;;8.20;99.90;;;;;;5093607;28;20318;-65
2022/03/25 02:48:21;;;;;;;29.23;14.17;;;8.20;99.90;;;;;;5093782;28;20354;-66
2022/03/25 02:50:47;;;;;;;26.70;14.68;;;8.10;99.90;;;;;;5093730;28;20047;-65
2022/03/25 02:53:13;;;;;;;24.58;14.85;;;8.10;99.90;;;;;;5093917;28;20449;-65
2022/03/25 02:55:39;;;;;;;25.23;14.80;;;8.10;99.90;;;;;;5093545;28;20021;-66
2022/03/25 02:58:06;;;;;;;28.73;15.35;;;8.10;99.90;;;;;;5093159;28;20016;-65
2022/03/25 03:00:32;;;;;;;;;;;8.10;99.80;;;;;;5093775;28;20481;-66
2022/03/25 03:03:00;;;;;;;24.17;14.00;;;8.00;99.80;;;;;;5075269;28;19905;-65
2022/03/25 03:05:26;;;;;;;25.50;14.45;;;8.00;99.90;;;;;;5093700;28;20024;-66
2022/03/25 03:07:52;;;;;;;25.70;14.82;;;8.10;99.80;;;;;;5093409;28;20020;-65
2022/03/25 03:10:18;;;;;;;25.63;14.53;;;8.10;99.90;;;;;;5093465;28;20500;-65
2022/03/25 03:12:44;;;;;;;24.23;15.05;;;8.10;99.40;;;;;;5093402;28;20028;-65
2022/03/25 03:15:12;;;;;;;29.55;15.35;;;8.10;99.30;;;;;;5093358;28;20028;-64
2022/03/25 03:17:37;;;;;;;27.20;15.20;;;8.10;99.20;;;;;;5093030;28;20147;-65
2022/03/25 03:20:06;;;;;;;33.70;15.65;;;8.00;99.00;;;;;;5093075;28;20024;-65
2022/03/25 03:22:31;;;;;;;34.35;16.10;;;8.10;98.80;;;;;;5093237;28;20392;-65
2022/03/25 03:24:57;;;;;;;28.13;16.95;;;8.10;99.10;;;;;;5083035;28;20017;-65
2022/03/25 03:27:23;;;;;;;29.07;16.60;;;8.00;98.80;;;;;;5100672;28;20026;-65
2022/03/25 03:29:49;;;;;;;27.33;15.50;;;8.00;98.90;;;;;;5093184;28;20027;-65
2022/03/25 03:32:14;;;;;;;32.45;15.80;;;8.00;98.60;;;;;;5074735;28;20107;-65
2022/03/25 03:34:40;;;;;;;30.63;15.97;;;8.00;99.00;;;;;;5092855;28;20475;-65
2022/03/25 03:37:06;;;;;;;35.90;15.63;;;8.00;98.80;;;;;;5092936;28;20016;-65
2022/03/25 03:39:32;;;;;;;27.80;15.67;;;7.90;98.40;;;;;;5093783;28;20043;-66
2022/03/25 03:41:58;;;;;;;29.35;15.82;;;7.90;98.60;;;;;;5096806;28;20060;-66
2022/03/25 03:44:24;;;;;;;31.27;16.10;;;8.00;98.30;;;;;;5079029;28;20043;-65
2022/03/25 03:46:50;;;;;;;30.88;16.05;;;7.90;98.50;;;;;;5078571;28;20021;-65
2022/03/25 03:49:15;;;;;;;30.30;15.80;;;7.90;99.00;;;;;;5096399;28;20449;-65
2022/03/25 03:51:41;;;;;;;24.27;14.50;;;7.80;99.10;;;;;;5078821;28;20039;-65
2022/03/25 03:54:06;;;;;;;29.80;15.03;;;7.80;99.40;;;;;;5096822;28;20024;-65
2022/03/25 03:56:32;;;;;;;24.90;14.30;;;7.80;99.10;;;;;;5097136;28;20027;-66
2022/03/25 03:58:58;;;;;;;28.10;15.32;;;7.80;99.00;;;;;;5097058;28;20085;-65
2022/03/25 04:01:24;;;;;;;27.80;15.13;;;7.80;98.90;;;;;;5096743;28;20040;-65
2022/03/25 04:03:49;;;;;;;31.90;16.75;;;7.80;99.10;;;;;;5096958;28;20077;-66
2022/03/25 04:06:15;;;;;;;27.37;16.07;;;7.80;98.60;;;;;;5096726;28;20103;-66
2022/03/25 04:08:41;;;;;;;28.07;15.43;;;7.80;98.50;;;;;;5078207;28;20027;-65
2022/03/25 04:11:07;;;;;;;28.77;15.43;;;7.80;98.60;;;;;;5078488;28;20024;-64
2022/03/25 04:13:32;;;;;;;29.85;16.75;;;7.80;98.30;;;;;;5096387;28;20044;-64
2022/03/25 04:15:58;;;;;;;28.57;14.47;;;7.80;98.00;;;;;;5096181;28;20514;-65
2022/03/25 04:18:23;;;;;;;30.93;15.63;;;7.80;98.50;;;;;;5096057;28;20088;-66
2022/03/25 04:20:50;;;;;;;34.80;15.47;;;7.80;98.50;;;;;;5096211;28;20024;-65
2022/03/25 04:23:16;;;;;;;30.10;15.32;;;7.70;98.60;;;;;;5096656;28;20414;-64
2022/03/25 04:25:42;;;;;;;30.80;16.13;;;7.70;98.70;;;;;;5096401;28;20035;-65
2022/03/25 04:28:07;;;;;;;28.88;14.60;;;7.70;98.80;;;;;;5078121;28;20024;-65
2022/03/25 04:30:36;;;;;;;26.33;15.67;;;7.70;98.70;;;;;;5101847;28;20035;-66
2022/03/25 04:33:02;;;;;;;28.73;14.88;;;7.70;98.60;;;;;;5104922;28;20396;-65
2022/03/25 04:35:28;;;;;;;31.23;16.45;;;7.70;98.30;;;;;;5081786;28;20024;-65
2022/03/25 04:37:55;;;;;;;33.38;15.98;;;7.60;98.30;;;;;;5077718;28;20115;-65
2022/03/25 04:40:23;;;;;;;29.40;15.70;;;7.60;98.50;;;;;;5095655;28;20111;-66
2022/03/25 04:42:50;;;;;;;29.65;16.10;;;7.60;98.90;;;;;;5095781;28;20020;-66
2022/03/25 04:45:17;;;;;;;29.73;16.50;;;7.60;98.80;;;;;;5077546;28;20024;-65
2022/03/25 04:47:43;;;;;;;;;;;7.60;99.10;;;;;;5096157;28;20058;-66
2022/03/25 04:50:09;;;;;;;26.70;15.10;;;7.60;99.00;;;;;;5095705;28;20405;-65
2022/03/25 04:52:35;;;;;;;30.45;14.40;;;7.50;99.30;;;;;;5094829;28;20476;-65
2022/03/25 04:55:02;;;;;;;28.92;15.65;;;7.50;99.40;;;;;;5095452;28;20035;-65
2022/03/25 04:57:28;;;;;;;30.40;16.40;;;7.40;99.40;;;;;;5096559;28;20028;-65
2022/03/25 04:59:54;;;;;;;27.40;14.90;;;7.30;99.70;;;;;;5098275;28;20024;-65
2022/03/25 05:02:20;;;;;;;30.60;15.53;;;7.30;99.90;;;;;;5098111;28;20035;-65
2022/03/25 05:04:46;;;;;;;29.05;15.88;;;7.20;99.90;;;;;;5098263;28;20250;-65
2022/03/25 05:07:18;;;;;;;28.10;14.77;;;7.20;99.90;;;;;;5096679;28;20058;-65
2022/03/25 05:09:44;;;;;;;28.67;15.02;;;7.10;99.90;;;;;;5095245;28;20024;-65
2022/03/25 05:12:10;;;;;;;31.30;14.88;;;7.10;99.90;;;;;;5076894;28;20457;-65
2022/03/25 05:14:36;;;;;;;27.20;14.88;;;7.10;99.90;;;;;;5095551;28;20431;-64
2022/03/25 05:17:01;;;;;;;28.23;15.13;;;7.00;99.90;;;;;;5095585;28;20024;-65
2022/03/25 05:19:27;;;;;;;28.13;13.98;;;6.90;99.90;;;;;;5094740;28;20382;-65
2022/03/25 05:21:53;;;;;;;29.90;14.90;;;6.90;99.90;;;;;;5094898;28;20020;-65
2022/03/25 05:24:19;;;;;;;29.15;14.98;;;6.80;99.90;;;;;;5095249;28;20270;-65
2022/03/25 05:26:45;;;;;;;27.98;15.65;;;6.80;99.90;;;;;;5094767;28;20039;-65
2022/03/25 05:29:11;;;;;;;33.15;16.52;;;6.70;99.90;;;;;;5094870;28;20433;-65
2022/03/25 05:31:37;;;;;;;32.20;15.67;;;6.70;99.90;;;;;;5094783;28;20530;-65
2022/03/25 05:34:06;;;;;;;33.15;17.70;;;6.60;99.90;;;;;;5094725;28;20340;-65
2022/03/25 05:36:33;;;;;;;35.03;16.60;;;6.50;99.90;;;;;;5076444;28;20035;-65
2022/03/25 05:38:59;;;;;;;28.33;15.40;;;6.40;99.90;;;;;;5095286;28;20028;-65
2022/03/25 05:41:25;;;;;;;;;;;6.20;99.90;;;;;;5095235;28;20024;-67
2022/03/25 05:43:52;;;;;;;31.92;15.68;;;6.20;99.90;;;;;;5094644;28;20288;-64
2022/03/25 05:46:18;;;;;;;32.05;16.02;;;6.10;99.90;;;;;;5094510;28;20065;-64
2022/03/25 05:48:44;;;;;;;30.13;15.40;;;6.10;99.90;;;;;;5094410;28;20028;-63
2022/03/25 05:51:10;;;;;;;32.30;16.88;;;6.00;99.90;;;;;;5076627;28;20034;-64
2022/03/25 05:53:37;;;;;;;28.90;14.70;;;6.00;99.90;;;;;;5095296;28;20480;-63
2022/03/25 05:56:05;;;;;;;31.35;16.27;;;6.00;99.90;;;;;;5095268;28;20028;-64
2022/03/25 05:58:35;;;;;;;32.70;16.75;;;5.90;99.90;;;;;;5078307;28;20126;-64
2022/03/25 06:01:04;;;;;;;30.15;15.25;;;5.90;99.90;;;;;;5094651;28;20039;-64
2022/03/25 06:03:32;;;;;;;28.23;15.07;;;5.90;99.90;;;;;;5094187;28;20036;-70
2022/03/25 06:05:58;;;;;;;34.53;15.73;;;5.90;99.90;;;;;;5094716;28;20012;-68
2022/03/25 06:08:24;;;;;;;29.13;15.20;;;5.90;99.90;;;;;;5094813;28;20024;-68
2022/03/25 06:10:50;;;;;;;35.10;16.60;;;6.00;99.90;;;;;;5094632;28;20035;-68
2022/03/25 06:13:16;;;;;;;26.00;14.55;;;6.00;99.90;;;;;;5094561;28;20043;-66
2022/03/25 06:15:42;;;;;;;34.37;16.67;;;6.10;99.90;;;;;;5094264;28;20024;-68
2022/03/25 06:18:08;;;;;;;29.08;15.10;;;6.10;99.90;;;;;;5094448;28;20169;-69
2022/03/25 06:20:34;;;;;;;28.52;15.50;;;6.20;99.90;;;;;;5115415;22;20567;-68
2022/03/25 06:23:00;;;;;;;33.95;15.65;;;6.20;99.90;;;;;;5094824;28;20059;-67
2022/03/25 06:25:26;;;;;;;29.98;15.02;;;6.30;99.90;;;;;;5094448;28;20051;-68
2022/03/25 06:27:54;;;;;;;26.90;14.73;;;6.30;99.90;;;;;;5094242;28;20099;-67
2022/03/25 06:30:22;;;;;;;28.33;14.95;;;6.40;99.90;;;;;;5094526;28;20128;-68
2022/03/25 06:32:49;;;;;;;31.02;15.18;;;6.40;99.90;;;;;;5094060;28;20135;-68
2022/03/25 06:35:15;;;;;;;29.47;14.57;;;6.40;99.90;;;;;;5075524;28;20060;-68
2022/03/25 06:37:41;;;;;;;26.73;13.80;;;6.40;99.90;;;;;;5094226;28;20294;-67
2022/03/25 06:40:07;;;;;;;25.13;13.80;;;6.40;99.90;;;;;;5075211;28;20068;-64
2022/03/25 06:42:34;;;;;;;27.98;15.10;;;6.40;99.90;;;;;;5094547;28;20024;-68
2022/03/25 06:44:59;;;;;;;;;;;6.40;99.90;;;;;;5095224;28;20424;-66
2022/03/25 06:47:25;;;;;;;27.00;14.15;;;6.40;99.90;;;;;;5094877;28;19999;-67
2022/03/25 06:49:51;;;;;;;33.80;17.63;;;6.40;99.90;;;;;;5094367;28;20361;-65
2022/03/25 06:52:17;;;;;;;32.65;16.65;;;6.40;99.90;;;;;;5094945;28;20170;-64
2022/03/25 06:54:43;;;;;;;32.33;16.10;;;6.40;99.90;;;;;;5095407;28;20070;-65
2022/03/25 06:57:09;;;;;;;39.42;17.00;;;6.40;99.90;;;;;;5095356;28;20035;-63
2022/03/25 06:59:35;;;;;;;35.00;17.13;;;6.40;99.90;;;;;;5076501;28;20084;-63
2022/03/25 07:02:01;;;;;;;31.25;16.05;;;6.50;99.90;;;;;;5094613;28;20039;-64
2022/03/25 07:04:27;;;;;;;32.17;16.58;;;6.50;99.90;;;;;;5095315;28;20457;-64
2022/03/25 07:06:56;;;;;;;29.25;15.88;;;6.70;99.90;;;;;;5095158;28;20027;-65
2022/03/25 07:09:22;;;;;;;36.33;17.17;;;6.70;99.90;;;;;;5077505;28;20020;-65
2022/03/25 07:11:47;;;;;;;34.17;17.30;;;6.80;99.90;;;;;;5095523;28;20026;-68
2022/03/25 07:14:13;;;;;;;34.10;17.15;;;6.90;99.90;;;;;;5076847;28;20096;-66
2022/03/25 07:16:42;;;;;;;33.70;17.80;;;7.00;99.90;;;;;;5099553;28;20051;-66
2022/03/25 07:19:09;;;;;;;37.28;18.77;;;7.20;99.90;;;;;;5099155;28;20032;-65
2022/03/25 07:21:35;;;;;;;31.65;17.08;;;7.30;99.90;;;;;;5099018;28;20031;-65
2022/03/25 07:24:01;;;;;;;37.00;17.58;;;7.40;99.90;;;;;;5098757;28;20020;-66
2022/03/25 07:26:26;;;;;;;38.33;18.87;;;7.50;99.90;;;;;;5081487;28;20024;-65
2022/03/25 07:28:52;;;;;;;36.83;17.87;;;7.60;99.90;;;;;;5080101;28;20035;-67
2022/03/25 07:31:18;;;;;;;39.27;19.43;;;7.70;99.90;;;;;;5080952;28;20027;-65
2022/03/25 07:33:44;;;;;;;36.70;18.25;;;7.90;99.50;;;;;;5099518;28;20024;-67
2022/03/25 07:36:10;;;;;;;38.75;18.38;;;8.00;99.10;;;;;;5080308;28;20133;-66
2022/03/25 07:38:37;;;;;;;41.63;19.75;;;8.10;98.50;;;;;;5097801;28;20028;-71
2022/03/25 07:41:03;;;;;;;38.88;20.27;;;8.20;98.20;;;;;;5079293;28;20035;-66
2022/03/25 07:43:30;;;;;;;40.53;20.33;;;8.40;97.80;;;;;;5097397;28;20034;-67
2022/03/25 07:45:57;;;;;;;42.65;21.27;;;8.50;96.80;;;;;;5097247;28;20027;-65
2022/03/25 07:48:22;;;;;;;42.15;21.45;;;8.60;96.50;;;;;;5097344;28;20034;-66
2022/03/25 07:50:48;;;;;;;44.60;22.02;;;8.70;96.10;;;;;;5097482;28;20107;-67
2022/03/25 07:53:14;;;;;;;49.30;22.75;;;8.80;95.60;;;;;;5078747;28;20024;-66
2022/03/25 07:55:40;;;;;;;45.33;22.27;;;8.90;95.40;;;;;;5097305;28;20388;-66
2022/03/25 07:58:06;;;;;;;43.53;21.23;;;9.00;95.00;;;;;;5078407;28;20035;-65
2022/03/25 08:00:32;;;;;;;41.38;20.70;;;9.10;94.70;;;;;;5078373;28;20403;-63
2022/03/25 08:02:57;;;;;;;41.78;20.85;;;9.20;94.60;;;;;;5096756;28;20506;-64
2022/03/25 08:05:23;;;;;;;49.47;22.93;;;9.30;93.90;;;;;;5096762;28;20026;-63
2022/03/25 08:07:54;;;;;;;41.50;21.97;;;9.40;93.60;;;;;;5097055;28;20028;-63
2022/03/25 08:10:27;;;;;;;42.72;21.30;;;9.50;93.70;;;;;;5096740;28;20445;-63
2022/03/25 08:12:54;;;;;;;44.40;22.13;;;9.60;93.10;;;;;;5096803;28;20048;-63
2022/03/25 08:15:21;;;;;;;49.00;21.98;;;9.70;92.80;;;;;;5097111;28;20021;-65
2022/03/25 08:17:55;;;;;;;45.97;22.73;;;9.90;92.40;;;;;;5096734;28;20038;-65
2022/03/25 08:20:27;;;;;;;56.67;21.33;;;10.00;91.90;;;;;;5078359;28;20039;-65
2022/03/25 08:22:54;;;;;;;44.63;22.42;;;10.10;91.80;;;;;;5096205;28;20044;-67
2022/03/25 08:28:05;;;;;;;40.80;22.05;;;10.30;91.10;;;;;;5096291;28;20444;-65
2022/03/25 08:30:32;;;;;;;42.88;21.15;;;10.50;90.90;;;;;;5078076;28;20024;-64
2022/03/25 08:32:58;;;;;;;38.95;21.27;;;10.60;90.30;;;;;;5096662;28;20107;-63
2022/03/25 08:35:25;;;;;;;41.22;20.13;;;10.60;90.00;;;;;;5096395;28;20111;-63
2022/03/25 08:37:53;;;;;;;44.15;21.90;;;10.70;89.40;;;;;;5077544;28;20035;-63
2022/03/25 08:40:19;;;;;;;41.90;22.30;;;10.80;87.80;;;;;;5095783;28;20020;-64
2022/03/25 08:42:45;;;;;;;40.00;21.75;;;11.00;87.40;;;;;;5095861;28;20055;-60
2022/03/25 08:45:13;;;;;;;45.73;23.07;;;11.10;86.90;;;;;;5096127;28;20072;-61
2022/03/25 08:47:39;;;;;;;49.55;22.48;;;11.20;86.70;;;;;;5095838;28;20027;-63
2022/03/25 08:50:05;;;;;;;38.53;22.33;;;12.10;83.80;;;;;;5095977;28;20028;-63
2022/03/25 08:52:31;;;;;;;;;;;13.90;78.00;;;;;;5078789;28;20093;-64
2022/03/25 08:54:57;;;;;;;42.92;22.77;;;15.80;70.20;;;;;;5097252;28;19932;-65
2022/03/25 08:57:22;;;;;;;39.30;22.23;;;17.40;65.50;;;;;;5097498;28;20081;-65
2022/03/25 08:59:48;;;;;;;37.70;23.63;;;18.30;61.00;;;;;;5096934;28;20057;-64
2022/03/25 09:02:14;;;;;;;40.42;26.50;;;18.90;58.50;;;;;;5096378;28;20028;-65
2022/03/25 09:04:39;;;;;;;41.63;24.70;;;19.60;56.80;;;;;;5096699;28;20531;-64
2022/03/25 09:07:05;;;;;;;38.03;24.23;;;20.20;54.60;;;;;;5096342;28;20055;-65
2022/03/25 09:09:31;;;;;;;40.15;25.60;;;21.40;53.10;;;;;;5095588;28;20043;-65
2022/03/25 09:11:56;;;;;;;;;;;20.60;53.00;;;;;;5077697;28;20422;-65
2022/03/25 09:14:22;;;;;;;34.50;25.02;;;21.60;51.10;;;;;;5076857;28;19911;-62
2022/03/25 09:16:47;;;;;;;;;;;22.00;50.80;;;;;;5077421;28;20047;-62
2022/03/25 09:19:13;;;;;;;37.47;25.02;;;23.30;48.40;;;;;;5076947;28;19912;-64
2022/03/25 09:21:39;;;;;;;40.63;25.90;;;24.20;46.60;;;;;;5095545;28;20067;-64
2022/03/25 09:24:04;;;;;;;41.35;25.77;;;24.20;46.80;;;;;;5095045;28;20393;-64
2022/03/25 09:26:30;;;;;;;34.85;25.98;;;24.10;46.50;;;;;;5077382;28;20024;-63
2022/03/25 09:28:56;;;;;;;32.72;25.25;;;25.10;45.00;;;;;;5095075;28;20515;-64
2022/03/25 09:31:22;;;;;;;37.03;24.70;;;24.80;44.50;;;;;;5095322;28;20434;-69
2022/03/25 09:33:47;;;;;;;32.63;26.40;;;25.90;43.90;;;;;;5095371;28;20481;-65
2022/03/25 09:36:16;;;;;;;35.70;25.40;;;26.30;44.00;;;;;;5076916;28;20024;-65
2022/03/25 09:38:42;;;;;;;32.53;24.75;;;27.70;42.20;;;;;;5094787;28;20107;-65
2022/03/25 09:41:08;;;;;;;33.83;25.45;;;27.70;41.20;;;;;;5095657;28;20165;-68
2022/03/25 09:43:37;;;;;;;35.50;25.45;;;27.70;41.20;;;;;;5096491;28;20044;-64
2022/03/25 09:46:02;;;;;;;35.10;25.85;;;28.80;41.30;;;;;;5077530;28;20101;-65
2022/03/25 09:48:28;;;;;;;30.17;24.85;;;29.90;40.00;;;;;;5096199;28;20430;-65
2022/03/25 09:50:54;;;;;;;31.15;25.27;;;31.00;39.50;;;;;;5096028;28;20103;-65
2022/03/25 09:53:19;;;;;;;35.25;26.50;;;31.30;37.80;;;;;;5096462;28;20016;-66
2022/03/25 09:55:46;;;;;;;35.20;27.08;;;30.00;38.50;;;;;;5096174;28;20525;-66
2022/03/25 09:58:19;;;;;;;31.77;25.75;;;28.30;38.70;;;;;;5078122;28;20024;-67
2022/03/25 10:00:52;;;;;;;31.80;26.52;;;29.00;39.30;;;;;;5095868;28;20024;-67
2022/03/25 10:03:30;;;;;;;33.25;25.45;;;29.60;38.60;;;;;;5077237;28;20039;-67
2022/03/25 10:05:57;;;;;;;31.05;25.85;;;30.90;38.30;;;;;;5098110;28;20425;-64
2022/03/25 10:08:33;;;;;;;32.08;25.95;;;31.60;37.80;;;;;;5076138;28;20016;-65
2022/03/25 10:11:25;;;;;;;30.60;25.85;;;32.80;37.30;;;;;;5094592;28;20559;-66
2022/03/25 10:14:21;;;;;;;30.65;26.45;;;33.30;37.00;;;;;;5076088;28;20475;-67
2022/03/25 10:16:51;;;;;;;34.47;26.08;;;33.20;36.10;;;;;;5095559;28;20524;-65
2022/03/25 10:19:18;;;;;;;34.08;28.65;;;31.90;36.60;;;;;;5095504;28;20044;-64
2022/03/25 10:22:02;;;;;;;31.40;25.13;;;32.60;36.10;;;;;;5096838;28;20051;-62
2022/03/25 10:24:44;;;;;;;34.35;26.83;;;32.70;36.10;;;;;;5094325;28;20016;-62
2022/03/25 10:27:11;;;;;;;29.65;25.60;;;31.90;36.10;;;;;;5094402;28;20032;-62
2022/03/25 10:29:36;;;;;;;38.33;27.15;;;32.10;36.30;;;;;;5094611;28;20020;-62
2022/03/25 10:32:11;;;;;;;39.08;28.20;;;32.20;36.20;;;;;;5094855;28;20472;-65
2022/03/25 10:34:39;;;;;;;33.63;26.80;;;31.90;35.90;;;;;;5096468;28;20571;-63
2022/03/25 10:37:11;;;;;;;32.75;26.70;;;30.90;36.80;;;;;;5077725;28;20364;-64
2022/03/25 10:39:37;;;;;;;30.40;26.25;;;30.30;36.90;;;;;;5098073;28;20107;-63
2022/03/25 10:42:05;;;;;;;36.10;26.30;;;29.20;37.20;;;;;;5098448;28;20055;-65
2022/03/25 10:44:37;;;;;;;32.08;25.65;;;29.60;37.50;;;;;;5097027;28;20020;-63
2022/03/25 10:47:31;;;;;;;33.40;26.05;;;30.30;37.00;;;;;;5097815;28;20027;-63
2022/03/25 10:50:14;;;;;;;36.22;27.40;;;30.20;36.60;;;;;;5093634;28;20115;-63
2022/03/25 10:52:41;;;;;;;32.65;27.20;;;29.70;36.90;;;;;;5096528;28;20028;-63
2022/03/25 10:55:14;;;;;;;34.55;26.05;;;29.70;36.90;;;;;;5096304;28;20017;-64
2022/03/25 10:57:47;;;;;;;31.38;25.63;;;29.60;36.40;;;;;;5093992;28;20036;-65
2022/03/25 11:00:13;;;;;;;34.17;26.23;;;29.50;36.90;;;;;;5095057;28;20024;-63
2022/03/25 11:02:39;;;;;;;31.08;26.13;;;28.60;36.80;;;;;;5094327;28;20524;-60
2022/03/25 11:05:09;;;;;;;32.33;27.63;;;27.80;38.30;;;;;;5076049;28;20520;-63
2022/03/25 11:07:38;;;;;;;34.03;26.95;;;26.70;38.40;;;;;;5093852;28;20037;-61
2022/03/25 11:10:03;;;;;;;35.80;26.95;;;26.50;38.00;;;;;;5093623;28;20074;-61
2022/03/25 11:12:32;;;;;;;29.35;25.80;;;26.20;38.40;;;;;;5094013;28;20036;-61
2022/03/25 11:14:59;;;;;;;32.90;26.52;;;25.40;39.10;;;;;;5093885;28;20050;-63
2022/03/25 11:17:26;;;;;;;36.22;27.48;;;24.20;40.30;;;;;;5093414;28;20461;-63
2022/03/25 11:22:28;;;;;;;34.92;26.23;;;22.00;42.70;;;;;;5405026;23;20046;-70
2022/03/25 11:24:59;;;;;;;37.28;25.77;;;21.20;44.10;;;;;;5033530;28;20021;-70
2022/03/25 11:27:27;;;;;;;42.17;31.90;;;20.70;44.50;;;;;;5032868;28;20033;-70
2022/03/25 11:30:13;;;;;;;38.83;26.40;;;20.20;44.70;;;;;;5031746;28;20021;-72
2022/03/25 11:33:04;;;;;;;39.50;26.80;;;19.60;45.30;;;;;;5032868;28;20428;-71
2022/03/25 11:35:41;;;;;;;40.78;25.95;;;19.30;46.80;;;;;;5031834;28;20052;-71
2022/03/25 11:38:15;;;;;;;44.13;26.85;;;19.10;46.50;;;;;;5032140;28;20033;-71
2022/03/25 11:40:52;;;;;;;39.28;26.50;;;18.80;47.50;;;;;;5031716;28;20034;-69
2022/03/25 11:43:25;;;;;;;42.28;26.00;;;18.50;48.00;;;;;;5031581;28;20045;-63
2022/03/25 11:45:59;;;;;;;39.47;25.80;;;18.30;48.10;;;;;;5033031;28;20474;-64
2022/03/25 11:48:25;;;;;;;41.53;25.23;;;17.90;48.90;;;;;;5033102;28;20033;-64
2022/03/25 11:50:55;;;;;;;38.97;25.10;;;17.80;49.10;;;;;;5031771;28;20022;-63
2022/03/25 11:53:23;;;;;;;40.03;25.25;;;17.80;49.00;;;;;;5032725;28;20022;-69
2022/03/25 11:56:01;;;;;;;42.28;26.05;;;17.70;48.80;;;;;;5031371;28;20026;-66
2022/03/25 11:58:29;;;;;;;42.50;26.45;;;17.80;49.00;;;;;;5032736;28;20029;-66
2022/03/25 12:01:06;;;;;;;39.35;24.75;;;17.80;49.00;;;;;;5033981;28;20089;-67
2022/03/25 12:03:43;;;;;;;39.92;25.42;;;17.80;49.40;;;;;;5036420;28;20021;-69
2022/03/25 12:06:11;;;;;;;43.78;27.60;;;17.90;49.20;;;;;;5036160;28;20108;-62
2022/03/25 12:08:39;;;;;;;47.75;27.10;;;17.90;49.40;;;;;;5036531;28;20083;-66
2022/03/25 12:11:10;;;;;;;43.20;26.58;;;18.00;49.20;;;;;;5035982;28;20030;-64
2022/03/25 12:13:51;;;;;;;45.75;27.48;;;18.00;49.60;;;;;;5035984;28;20029;-62
2022/03/25 12:16:47;;;;;;;45.72;26.33;;;18.00;49.20;;;;;;5036918;28;20035;-64
2022/03/25 12:19:28;;;;;;;42.60;25.48;;;18.00;49.40;;;;;;5037569;28;20017;-61
2022/03/25 12:21:57;;;;;;;42.03;25.98;;;18.10;49.40;;;;;;5037683;28;20083;-63
2022/03/25 12:24:24;;;;;;;43.55;24.63;;;18.00;49.30;;;;;;5038174;28;20018;-63
2022/03/25 12:27:07;;;;;;;46.00;27.50;;;18.10;49.50;;;;;;5037076;28;20042;-62
2022/03/25 12:29:39;;;;;;;44.13;27.30;;;18.10;49.60;;;;;;5035747;28;20014;-63
2022/03/25 12:32:10;;;;;;;43.78;27.08;;;18.00;49.50;;;;;;5035672;28;20116;-63
2022/03/25 12:34:41;;;;;;;47.85;27.90;;;18.00;49.60;;;;;;5035656;28;20079;-62
2022/03/25 12:37:13;;;;;;;40.00;25.48;;;18.10;48.80;;;;;;5035456;28;20095;-62
2022/03/25 12:39:39;;;;;;;46.83;25.63;;;18.00;48.80;;;;;;5035522;28;20025;-63
2022/03/25 12:42:12;;;;;;;46.28;27.58;;;18.10;48.70;;;;;;5035523;28;20036;-64
2022/03/25 12:44:38;;;;;;;45.80;25.80;;;18.00;49.00;;;;;;5035658;28;20026;-63
2022/03/25 12:47:04;;;;;;;41.50;25.67;;;18.10;48.70;;;;;;5036092;28;20104;-63
2022/03/25 12:49:31;;;;;;;38.65;25.42;;;18.10;48.70;;;;;;5033978;28;20032;-63